createdAt,value
2018-07-05T00:02:14.498Z,90.20
2018-07-05T00:04:54.930Z,90.90
2018-07-05T00:07:35.099Z,91.40
2018-07-05T00:10:15.258Z,90.60
2018-07-05T00:12:55.592Z,91.80
2018-07-05T00:15:35.540Z,90.50
2018-07-05T00:18:17.233Z,90.10
2018-07-05T00:20:57.501Z,93.30
2018-07-05T00:23:37.742Z,92.10
2018-07-05T00:26:17.920Z,93.20
2018-07-05T00:28:58.090Z,91.90
2018-07-05T00:31:38.248Z,91.30
2018-07-05T00:34:18.369Z,92.40
2018-07-05T00:36:58.252Z,92.10
2018-07-05T00:39:38.544Z,93.60
2018-07-05T00:42:18.498Z,92.10
2018-07-05T00:44:58.711Z,93.90
2018-07-05T00:47:39.021Z,96.80
2018-07-05T00:50:19.221Z,97.20
2018-07-05T00:55:33.717Z,95.20
2018-07-05T00:58:14.109Z,96.60
2018-07-05T01:00:54.311Z,93.60
2018-07-05T01:03:34.321Z,94.40
2018-07-05T01:06:14.420Z,94.60
2018-07-05T01:08:54.771Z,94.10
2018-07-05T01:11:34.878Z,97.50
2018-07-05T01:14:15.188Z,96.10
2018-07-05T01:16:55.330Z,97.50
2018-07-05T01:22:09.962Z,95.60
2018-07-05T01:24:50.210Z,93.90
2018-07-05T01:27:30.368Z,94.80
2018-07-05T01:30:10.311Z,93.80
2018-07-05T01:32:50.877Z,97.00
2018-07-05T01:35:31.008Z,96.90
2018-07-05T01:38:11.698Z,94.30
2018-07-05T01:40:51.841Z,93.80
2018-07-05T01:43:32.156Z,93.70
2018-07-05T01:46:12.466Z,92.50
2018-07-05T01:48:52.481Z,93.50
2018-07-05T01:51:32.645Z,93.80
2018-07-05T01:54:12.918Z,96.00
2018-07-05T01:56:52.911Z,97.80
2018-07-05T01:59:33.387Z,96.30
2018-07-05T02:02:13.516Z,94.90
2018-07-05T02:04:53.678Z,94.80
2018-07-05T02:07:33.740Z,94.70
2018-07-05T02:10:14.129Z,94.80
2018-07-05T02:12:54.398Z,94.90
2018-07-05T02:15:34.289Z,93.70
2018-07-05T02:18:14.282Z,95.30
2018-07-05T02:20:54.348Z,95.70
2018-07-05T02:23:34.922Z,95.80
2018-07-05T02:26:15.132Z,95.20
2018-07-05T02:28:56.300Z,97.10
2018-07-05T02:31:37.738Z,95.70
2018-07-05T02:34:18.205Z,96.00
2018-07-05T02:36:58.556Z,99.90
2018-07-05T02:39:43.870Z,99.90
2018-07-05T02:42:23.968Z,98.90
2018-07-05T02:45:04.209Z,97.20
2018-07-05T02:47:44.355Z,95.30
2018-07-05T02:50:24.652Z,99.90
2018-07-05T02:53:04.716Z,99.50
2018-07-05T02:55:44.617Z,98.90
2018-07-05T02:58:24.669Z,98.10
2018-07-05T03:01:05.057Z,98.00
2018-07-05T03:03:45.019Z,95.40
2018-07-05T03:06:25.212Z,99.00
2018-07-05T03:09:05.427Z,99.90
2018-07-05T03:11:45.937Z,96.20
2018-07-05T03:14:27.464Z,97.60
2018-07-05T03:17:07.480Z,99.90
2018-07-05T03:19:47.879Z,97.50
2018-07-05T03:22:29.329Z,99.90
2018-07-05T03:25:09.768Z,99.90
2018-07-05T03:27:49.797Z,99.90
2018-07-05T03:30:29.841Z,99.90
2018-07-05T03:33:10.180Z,99.90
2018-07-05T03:35:50.436Z,99.90
2018-07-05T03:38:30.578Z,99.90
2018-07-05T03:41:10.722Z,99.90
2018-07-05T03:43:51.007Z,99.90
2018-07-05T03:46:30.976Z,99.90
2018-07-05T03:49:11.378Z,99.90
2018-07-05T03:51:51.559Z,99.90
2018-07-05T03:54:31.533Z,99.90
2018-07-05T03:57:11.869Z,99.90
2018-07-05T03:59:51.933Z,99.90
2018-07-05T04:02:32.001Z,99.90
2018-07-05T04:05:12.203Z,99.90
2018-07-05T04:07:53.688Z,99.90
2018-07-05T04:10:34.146Z,99.90
2018-07-05T04:13:14.211Z,99.90
2018-07-05T04:15:54.732Z,99.90
2018-07-05T04:18:34.923Z,99.90
2018-07-05T04:21:15.121Z,99.90
2018-07-05T04:23:55.305Z,99.90
2018-07-05T04:26:35.627Z,99.90
2018-07-05T04:31:49.819Z,99.90
2018-07-05T04:34:31.324Z,99.90
2018-07-05T04:37:11.719Z,99.90
2018-07-05T04:39:51.673Z,99.90
2018-07-05T04:42:31.930Z,99.90
2018-07-05T04:45:12.006Z,99.90
2018-07-05T04:47:52.048Z,99.90
2018-07-05T04:50:32.142Z,99.90
2018-07-05T04:53:12.432Z,99.90
2018-07-05T04:55:52.366Z,99.90
2018-07-05T04:58:32.682Z,99.90
2018-07-05T05:01:13.181Z,99.90
2018-07-05T05:03:53.552Z,99.90
2018-07-05T05:06:33.689Z,99.90
2018-07-05T05:09:13.769Z,99.90
2018-07-05T05:11:54.063Z,99.90
2018-07-05T05:14:34.200Z,99.90
2018-07-05T05:17:14.524Z,99.90
2018-07-05T05:19:54.890Z,99.90
2018-07-05T05:22:34.911Z,98.80
2018-07-05T05:25:15.295Z,99.40
2018-07-05T05:27:55.475Z,96.20
2018-07-05T05:30:35.700Z,95.60
2018-07-05T05:33:15.728Z,94.60
2018-07-05T05:35:56.108Z,95.30
2018-07-05T05:38:36.376Z,94.70
2018-07-05T05:41:16.392Z,95.10
2018-07-05T05:43:56.674Z,94.50
2018-07-05T05:46:36.996Z,93.60
2018-07-05T05:49:16.941Z,94.10
2018-07-05T05:51:57.340Z,93.30
2018-07-05T05:54:37.319Z,93.10
2018-07-05T05:57:17.360Z,92.50
2018-07-05T05:59:57.358Z,92.50
2018-07-05T06:02:37.738Z,92.20
2018-07-05T06:05:17.669Z,92.50
2018-07-05T06:07:58.233Z,92.20
2018-07-05T06:10:38.517Z,92.20
2018-07-05T06:13:18.542Z,92.20
2018-07-05T06:15:58.627Z,92.20
2018-07-05T06:18:38.858Z,91.60
2018-07-05T06:21:19.412Z,91.40
2018-07-05T06:23:59.707Z,91.20
2018-07-05T06:26:40.054Z,90.80
2018-07-05T06:29:20.088Z,90.70
2018-07-05T06:32:00.329Z,90.30
2018-07-05T06:34:40.482Z,90.50
2018-07-05T06:37:20.659Z,91.00
2018-07-05T06:40:01.029Z,90.30
2018-07-05T06:42:41.349Z,90.40
2018-07-05T06:45:21.748Z,90.30
2018-07-05T06:48:03.225Z,90.40
2018-07-05T06:50:43.688Z,90.40
2018-07-05T06:53:24.442Z,90.10
2018-07-05T06:56:04.913Z,90.50
2018-07-05T06:58:44.877Z,90.40
2018-07-05T07:01:25.033Z,90.60
2018-07-05T07:04:05.349Z,90.30
2018-07-05T07:06:45.509Z,90.30
2018-07-05T07:09:25.861Z,90.20
2018-07-05T07:12:05.882Z,91.00
2018-07-05T07:14:46.114Z,91.20
2018-07-05T07:17:26.108Z,90.90
2018-07-05T07:20:06.200Z,90.50
2018-07-05T07:22:46.861Z,89.70
2018-07-05T07:25:26.858Z,90.00
2018-07-05T07:28:07.257Z,89.70
2018-07-05T07:30:47.451Z,90.00
2018-07-05T07:33:27.381Z,88.10
2018-07-05T07:36:07.610Z,87.00
2018-07-05T07:38:47.518Z,86.10
2018-07-05T07:41:27.421Z,85.40
2018-07-05T07:43:55.479Z,84.50
2018-07-05T07:46:23.913Z,84.80
2018-07-05T07:48:52.058Z,84.10
2018-07-05T07:51:20.428Z,83.10
2018-07-05T07:53:48.379Z,82.80
2018-07-05T07:56:16.306Z,82.40
2018-07-05T07:58:44.942Z,82.10
2018-07-05T08:01:13.019Z,81.30
2018-07-05T08:03:41.503Z,82.30
2018-07-05T08:06:09.866Z,83.90
2018-07-05T08:08:38.311Z,86.20
2018-07-05T08:11:06.419Z,85.60
2018-07-05T08:13:34.280Z,82.50
2018-07-05T08:16:02.467Z,80.40
2018-07-05T08:18:30.453Z,81.00
2018-07-05T08:20:58.391Z,80.30
2018-07-05T08:23:26.363Z,79.90
2018-07-05T08:25:54.432Z,78.90
2018-07-05T08:28:22.541Z,79.40
2018-07-05T08:30:50.636Z,78.10
2018-07-05T08:33:18.946Z,79.10
2018-07-05T08:35:46.830Z,78.80
2018-07-05T08:38:14.976Z,77.40
2018-07-05T08:40:43.164Z,77.30
2018-07-05T08:43:11.024Z,76.60
2018-07-05T08:45:40.945Z,77.00
2018-07-05T08:48:08.910Z,77.40
2018-07-05T08:50:36.801Z,76.60
2018-07-05T08:53:04.797Z,77.20
2018-07-05T08:55:33.118Z,76.00
2018-07-05T08:58:01.137Z,75.70
2018-07-05T09:00:29.672Z,74.40
2018-07-05T09:02:57.597Z,74.70
2018-07-05T09:05:25.598Z,74.80
2018-07-05T09:07:53.691Z,74.50
2018-07-05T09:10:21.772Z,75.10
2018-07-05T09:12:49.961Z,73.40
2018-07-05T09:15:18.133Z,73.30
2018-07-05T09:17:46.447Z,73.30
2018-07-05T09:20:14.361Z,71.80
2018-07-05T09:22:42.204Z,72.90
2018-07-05T09:25:09.819Z,71.70
2018-07-05T09:27:37.508Z,70.60
2018-07-05T09:30:05.471Z,68.60
2018-07-05T09:32:33.499Z,69.80
2018-07-05T09:35:01.653Z,70.50
2018-07-05T09:37:29.567Z,70.50
2018-07-05T09:39:57.581Z,69.90
2018-07-05T09:42:25.358Z,70.60
2018-07-05T09:47:21.780Z,72.20
2018-07-05T09:49:50.567Z,71.30
2018-07-05T09:52:18.801Z,72.30
2018-07-05T09:54:46.718Z,71.30
2018-07-05T09:57:14.760Z,70.60
2018-07-05T09:59:42.681Z,70.80
2018-07-05T10:02:10.818Z,70.00
2018-07-05T10:04:38.829Z,70.90
2018-07-05T10:07:07.598Z,70.40
2018-07-05T10:09:35.686Z,69.40
2018-07-05T10:12:03.859Z,70.00
2018-07-05T10:14:31.786Z,70.10
2018-07-05T10:16:59.749Z,71.20
2018-07-05T10:19:27.810Z,71.30
2018-07-05T10:21:55.793Z,70.50
2018-07-05T10:24:23.980Z,69.00
2018-07-05T10:26:51.856Z,68.70
2018-07-05T10:29:31.996Z,69.80
2018-07-05T10:32:12.120Z,70.10
2018-07-05T10:34:40.100Z,71.50
2018-07-05T10:37:07.961Z,70.10
2018-07-05T10:39:36.072Z,70.10
2018-07-05T10:44:51.124Z,71.30
2018-07-05T10:47:31.301Z,70.60
2018-07-05T10:53:41.959Z,67.70
2018-07-05T10:56:22.096Z,68.20
2018-07-05T10:59:02.483Z,68.90
2018-07-05T11:01:42.791Z,70.50
2018-07-05T11:04:23.209Z,70.60
2018-07-05T11:07:03.503Z,71.10
2018-07-05T11:09:43.486Z,70.90
2018-07-05T11:12:23.440Z,70.80
2018-07-05T11:15:03.443Z,70.50
2018-07-05T11:17:43.792Z,64.30
2018-07-05T11:20:23.580Z,67.80
2018-07-05T11:23:03.409Z,66.40
2018-07-05T11:25:43.445Z,67.00
2018-07-05T11:28:23.407Z,64.00
2018-07-05T11:31:03.498Z,65.70
2018-07-05T11:33:43.455Z,66.30
2018-07-05T11:36:23.652Z,66.90
2018-07-05T11:39:05.329Z,68.00
2018-07-05T11:41:45.725Z,67.30
2018-07-05T11:44:25.957Z,65.70
2018-07-05T11:47:07.985Z,64.20
2018-07-05T11:49:48.043Z,65.20
2018-07-05T11:52:28.321Z,69.40
2018-07-05T11:55:08.657Z,69.90
2018-07-05T11:57:48.694Z,71.00
2018-07-05T12:00:29.024Z,71.70
2018-07-05T12:03:09.324Z,71.10
2018-07-05T12:05:49.133Z,70.10
2018-07-05T12:08:29.354Z,69.90
2018-07-05T12:11:09.495Z,69.30
2018-07-05T12:13:49.409Z,69.90
2018-07-05T12:16:29.241Z,69.00
2018-07-05T12:19:10.024Z,69.20
2018-07-05T12:21:50.422Z,69.30
2018-07-05T12:24:30.289Z,68.90
2018-07-05T12:27:10.095Z,71.00
2018-07-05T12:29:50.067Z,69.40
2018-07-05T12:32:30.079Z,67.90
2018-07-05T12:35:10.290Z,68.90
2018-07-05T12:37:50.101Z,68.30
2018-07-05T12:40:30.139Z,68.70
2018-07-05T12:43:10.564Z,69.30
2018-07-05T12:45:50.622Z,69.10
2018-07-05T12:48:31.047Z,69.40
2018-07-05T12:51:11.399Z,68.30
2018-07-05T12:53:51.331Z,67.30
2018-07-05T12:56:31.606Z,66.70
2018-07-05T12:59:11.966Z,66.20
2018-07-05T13:01:53.045Z,66.50
2018-07-05T13:04:33.406Z,65.30
2018-07-05T13:07:13.485Z,65.60
2018-07-05T13:09:53.570Z,67.90
2018-07-05T13:12:33.547Z,68.10
2018-07-05T13:15:13.786Z,69.50
2018-07-05T13:17:53.979Z,70.90
2018-07-05T13:20:34.038Z,73.20
2018-07-05T13:23:14.224Z,73.30
2018-07-05T13:25:54.736Z,73.40
2018-07-05T13:28:35.268Z,73.50
2018-07-05T13:31:15.556Z,73.70
2018-07-05T13:33:55.809Z,73.70
2018-07-05T13:36:35.897Z,73.10
2018-07-05T13:41:49.986Z,73.20
2018-07-05T13:44:30.038Z,73.90
2018-07-05T13:47:10.062Z,74.20
2018-07-05T13:49:51.404Z,74.40
2018-07-05T13:52:31.306Z,74.60
2018-07-05T13:55:11.813Z,75.40
2018-07-05T13:57:51.750Z,75.50
2018-07-05T14:00:31.805Z,75.50
2018-07-05T14:03:12.204Z,75.90
2018-07-05T14:05:52.377Z,75.90
2018-07-05T14:08:32.256Z,76.30
2018-07-05T14:11:12.291Z,76.00
2018-07-05T14:13:52.387Z,75.90
2018-07-05T14:16:32.518Z,76.30
2018-07-05T14:19:13.059Z,76.90
2018-07-05T14:21:53.566Z,76.80
2018-07-05T14:24:33.791Z,77.70
2018-07-05T14:27:14.460Z,77.30
2018-07-05T14:29:54.888Z,77.20
2018-07-05T14:32:35.149Z,77.10
2018-07-05T14:35:16.353Z,77.20
2018-07-05T14:37:56.806Z,76.50
2018-07-05T14:40:36.998Z,75.80
2018-07-05T14:43:17.278Z,75.90
2018-07-05T14:45:57.452Z,76.30
2018-07-05T14:48:37.707Z,74.40
2018-07-05T14:51:18.017Z,75.50
2018-07-05T14:53:58.451Z,74.20
2018-07-05T14:56:38.580Z,75.40
2018-07-05T14:59:19.188Z,75.20
2018-07-05T15:01:59.548Z,75.80
2018-07-05T15:04:40.102Z,76.10
2018-07-05T15:07:20.372Z,76.10
2018-07-05T15:10:00.642Z,74.40
2018-07-05T15:12:40.881Z,74.80
2018-07-05T15:15:20.898Z,72.80
2018-07-05T15:18:00.970Z,71.30
2018-07-05T15:20:41.071Z,70.60
2018-07-05T15:23:21.503Z,71.30
2018-07-05T15:26:01.359Z,70.90
2018-07-05T15:31:17.046Z,70.80
2018-07-05T15:33:58.325Z,71.00
2018-07-05T15:36:38.681Z,71.40
2018-07-05T15:39:18.800Z,71.00
2018-07-05T15:41:59.506Z,70.00
2018-07-05T15:44:39.339Z,68.70
2018-07-05T15:47:19.443Z,68.10
2018-07-05T15:49:59.762Z,67.80
2018-07-05T15:52:40.074Z,66.40
2018-07-05T15:55:19.949Z,65.10
2018-07-05T15:58:00.648Z,67.10
2018-07-05T16:00:41.288Z,66.00
2018-07-05T16:03:21.518Z,65.90
2018-07-05T16:06:01.618Z,65.40
2018-07-05T16:08:42.177Z,64.00
2018-07-05T16:11:22.217Z,65.00
2018-07-05T16:14:02.268Z,66.40
2018-07-05T16:16:42.821Z,65.90
2018-07-05T16:19:22.923Z,67.00
2018-07-05T16:22:03.308Z,67.70
2018-07-05T16:24:43.381Z,68.20
2018-07-05T16:27:23.599Z,66.80
2018-07-05T16:30:03.719Z,68.00
2018-07-05T16:32:43.906Z,68.90
2018-07-05T16:35:25.084Z,69.80
2018-07-05T16:38:05.171Z,68.60
2018-07-05T16:40:45.624Z,70.60
2018-07-05T16:43:25.990Z,68.90
2018-07-05T16:46:06.060Z,69.30
2018-07-05T16:48:50.409Z,70.20
2018-07-05T16:51:30.666Z,71.10
2018-07-05T16:54:10.666Z,72.10
2018-07-05T16:56:51.285Z,72.00
2018-07-05T16:59:31.203Z,72.20
2018-07-05T17:02:12.336Z,71.80
2018-07-05T17:07:26.761Z,72.10
2018-07-05T17:10:07.008Z,72.00
2018-07-05T17:12:47.371Z,70.90
2018-07-05T17:15:27.767Z,71.20
2018-07-05T17:18:08.026Z,71.70
2018-07-05T17:20:47.850Z,73.70
2018-07-05T17:23:28.201Z,75.50
2018-07-05T17:26:08.221Z,76.30
2018-07-05T17:28:48.521Z,76.10
2018-07-05T17:31:28.441Z,75.90
2018-07-05T17:34:08.601Z,76.80
2018-07-05T17:36:49.200Z,76.70
2018-07-05T17:39:29.138Z,76.40
2018-07-05T17:42:10.602Z,76.10
2018-07-05T17:47:25.568Z,75.50
2018-07-05T17:50:05.503Z,75.60
2018-07-05T17:52:45.499Z,75.40
2018-07-05T17:55:25.688Z,75.50
2018-07-05T17:58:06.117Z,75.80
2018-07-05T18:00:46.471Z,75.60
2018-07-05T18:03:26.409Z,76.50
2018-07-05T18:06:06.740Z,77.50
2018-07-05T18:08:46.838Z,77.40
2018-07-05T18:11:27.454Z,78.20
2018-07-05T18:16:42.258Z,78.30
2018-07-05T18:19:22.228Z,77.50
2018-07-05T18:22:02.249Z,78.10
2018-07-05T18:24:42.358Z,79.50
2018-07-05T18:27:22.465Z,80.20
2018-07-05T18:30:02.601Z,80.40
2018-07-05T18:32:43.148Z,81.20
2018-07-05T18:35:23.109Z,82.50
2018-07-05T18:38:03.217Z,83.80
2018-07-05T18:40:43.479Z,83.10
2018-07-05T18:43:23.576Z,83.50
2018-07-05T18:46:03.516Z,84.10
2018-07-05T18:48:43.582Z,84.70
2018-07-05T18:51:23.707Z,83.90
2018-07-05T18:54:04.082Z,84.40
2018-07-05T18:56:44.019Z,84.10
2018-07-05T18:59:24.426Z,84.20
2018-07-05T19:02:04.599Z,84.40
2018-07-05T19:04:44.566Z,84.80
2018-07-05T19:07:24.671Z,84.40
2018-07-05T19:10:04.988Z,84.00
2018-07-05T19:12:45.271Z,83.40
2018-07-05T19:15:25.371Z,82.90
2018-07-05T19:18:05.522Z,82.30
2018-07-05T19:23:21.304Z,82.60
2018-07-05T19:26:01.902Z,82.80
2018-07-05T19:28:42.471Z,83.60
2018-07-05T19:31:22.623Z,83.80
2018-07-05T19:34:02.798Z,85.20
2018-07-05T19:36:43.184Z,85.60
2018-07-05T19:39:23.592Z,86.10
2018-07-05T19:42:03.778Z,86.80
2018-07-05T19:44:44.188Z,86.60
2018-07-05T19:47:24.350Z,86.80
2018-07-05T19:50:04.932Z,86.80
2018-07-05T19:52:44.880Z,87.50
2018-07-05T19:55:25.186Z,87.20
2018-07-05T19:58:05.456Z,87.10
2018-07-05T20:00:45.569Z,87.80
2018-07-05T20:03:25.972Z,89.10
2018-07-05T20:06:06.131Z,90.10
2018-07-05T20:08:46.222Z,89.70
2018-07-05T20:11:26.083Z,89.70
2018-07-05T20:14:06.079Z,89.50
2018-07-05T20:16:46.849Z,91.20
2018-07-05T20:19:27.250Z,90.70
2018-07-05T20:22:11.783Z,90.40
2018-07-05T20:24:52.220Z,90.50
2018-07-05T20:27:32.266Z,90.20
2018-07-05T20:30:12.516Z,90.20
2018-07-05T20:32:52.457Z,89.60
2018-07-05T20:35:32.690Z,88.90
2018-07-05T20:38:12.767Z,88.40
2018-07-05T20:40:53.137Z,88.20
2018-07-05T20:43:34.571Z,90.30
2018-07-05T20:46:14.806Z,90.20
2018-07-05T20:48:54.923Z,90.50
2018-07-05T20:51:35.716Z,91.00
2018-07-05T20:54:16.149Z,93.10
2018-07-05T20:56:56.516Z,91.70
2018-07-05T20:59:37.190Z,92.10
2018-07-05T21:02:17.217Z,91.70
2018-07-05T21:04:57.702Z,90.80
2018-07-05T21:07:38.056Z,90.40
2018-07-05T21:10:18.263Z,90.10
2018-07-05T21:12:58.775Z,90.20
2018-07-05T21:15:39.010Z,90.20
2018-07-05T21:18:19.171Z,90.50
2018-07-05T21:20:59.644Z,90.60
2018-07-05T21:23:39.737Z,90.90
2018-07-05T21:26:20.255Z,91.10
2018-07-05T21:29:00.228Z,91.20
2018-07-05T21:31:41.516Z,90.90
2018-07-05T21:34:21.367Z,91.40
2018-07-05T21:37:02.409Z,91.50
2018-07-05T21:39:42.764Z,91.80
2018-07-05T21:42:22.950Z,92.00
2018-07-05T21:45:03.281Z,92.70
2018-07-05T21:47:43.439Z,92.80
2018-07-05T21:50:23.760Z,93.20
2018-07-05T21:53:03.636Z,92.70
2018-07-05T21:55:43.877Z,92.80
2018-07-05T21:58:24.183Z,93.40
2018-07-05T22:01:04.487Z,94.30
2018-07-05T22:03:44.847Z,94.30
2018-07-05T22:06:25.141Z,92.80
2018-07-05T22:09:06.196Z,93.20
2018-07-05T22:11:46.539Z,93.60
2018-07-05T22:14:26.728Z,92.80
2018-07-05T22:17:12.498Z,93.40
2018-07-05T22:19:58.079Z,92.40
2018-07-05T22:22:43.641Z,92.70
2018-07-05T22:25:28.855Z,92.60
2018-07-05T22:28:14.106Z,92.30
2018-07-05T22:30:59.335Z,93.40
2018-07-05T22:33:39.246Z,93.10
2018-07-05T22:36:19.199Z,94.20
2018-07-05T22:39:00.210Z,93.20
2018-07-05T22:41:40.378Z,93.00
2018-07-05T22:44:20.565Z,92.80
2018-07-05T22:47:00.855Z,93.00
2018-07-05T22:49:40.720Z,93.00
2018-07-05T22:52:20.851Z,93.50
2018-07-05T22:55:01.289Z,94.70
2018-07-05T22:57:41.525Z,95.10
2018-07-05T23:00:21.602Z,95.10
2018-07-05T23:03:01.791Z,95.60
2018-07-05T23:05:42.449Z,95.80
2018-07-05T23:08:22.418Z,96.70
2018-07-05T23:11:03.012Z,95.80
2018-07-05T23:13:43.060Z,97.30
2018-07-05T23:16:22.990Z,96.70
2018-07-05T23:19:03.080Z,97.00
2018-07-05T23:21:43.029Z,97.30
2018-07-05T23:24:23.472Z,96.50
2018-07-05T23:27:04.036Z,95.20
2018-07-05T23:29:44.496Z,95.40
2018-07-05T23:32:24.751Z,96.50
2018-07-05T23:35:05.007Z,96.80
2018-07-05T23:37:45.102Z,97.20
2018-07-05T23:40:25.347Z,98.00
2018-07-05T23:43:05.601Z,96.50
2018-07-05T23:45:45.650Z,97.40
2018-07-05T23:48:25.549Z,98.00
2018-07-05T23:51:05.672Z,98.40
2018-07-05T23:53:45.899Z,98.50
2018-07-05T23:56:25.751Z,97.60
2018-07-05T23:59:05.779Z,96.70
